sensor_id;sensor_type;location;lat;lon;timestamp;temperature;humidity
12841;DHT22;6487;48.626;12.486;2023-08-24T00:00:44;21.40;99.90
12841;DHT22;6487;48.626;12.486;2023-08-24T00:03:12;21.40;99.90
12841;DHT22;6487;48.626;12.486;2023-08-24T00:05:41;21.40;99.90
12841;DHT22;6487;48.626;12.486;2023-08-24T00:08:10;21.40;99.90
12841;DHT22;6487;48.626;12.486;2023-08-24T00:10:43;21.30;99.90
12841;DHT22;6487;48.626;12.486;2023-08-24T00:13:13;21.20;99.90
12841;DHT22;6487;48.626;12.486;2023-08-24T00:15:42;21.10;99.90
12841;DHT22;6487;48.626;12.486;2023-08-24T00:18:13;21.10;99.90
12841;DHT22;6487;48.626;12.486;2023-08-24T00:20:42;21.10;99.90
12841;DHT22;6487;48.626;12.486;2023-08-24T00:23:10;21.10;99.90
12841;DHT22;6487;48.626;12.486;2023-08-24T00:25:43;21.00;99.90
12841;DHT22;6487;48.626;12.486;2023-08-24T00:28:11;21.00;99.90
12841;DHT22;6487;48.626;12.486;2023-08-24T00:30:39;21.00;99.90
12841;DHT22;6487;48.626;12.486;2023-08-24T00:33:10;21.00;99.90
12841;DHT22;6487;48.626;12.486;2023-08-24T00:35:42;20.80;99.90
12841;DHT22;6487;48.626;12.486;2023-08-24T00:38:13;20.70;99.90
12841;DHT22;6487;48.626;12.486;2023-08-24T00:40:46;20.70;99.90
12841;DHT22;6487;48.626;12.486;2023-08-24T00:43:19;20.70;99.90
12841;DHT22;6487;48.626;12.486;2023-08-24T00:45:56;20.70;99.90
12841;DHT22;6487;48.626;12.486;2023-08-24T00:48:25;20.60;99.90
12841;DHT22;6487;48.626;12.486;2023-08-24T00:50:59;20.70;99.90
12841;DHT22;6487;48.626;12.486;2023-08-24T00:53:32;20.70;99.90
12841;DHT22;6487;48.626;12.486;2023-08-24T00:56:03;20.70;99.90
12841;DHT22;6487;48.626;12.486;2023-08-24T00:58:32;20.70;99.90
12841;DHT22;6487;48.626;12.486;2023-08-24T01:01:01;20.60;99.90
12841;DHT22;6487;48.626;12.486;2023-08-24T01:03:29;20.60;99.90
12841;DHT22;6487;48.626;12.486;2023-08-24T01:05:59;20.60;99.90
12841;DHT22;6487;48.626;12.486;2023-08-24T01:08:27;20.60;99.90
12841;DHT22;6487;48.626;12.486;2023-08-24T01:11:01;20.60;99.90
12841;DHT22;6487;48.626;12.486;2023-08-24T01:13:41;20.60;99.90
12841;DHT22;6487;48.626;12.486;2023-08-24T01:16:18;20.60;99.90
12841;DHT22;6487;48.626;12.486;2023-08-24T01:18:48;20.60;99.90
12841;DHT22;6487;48.626;12.486;2023-08-24T01:21:17;20.60;99.90
12841;DHT22;6487;48.626;12.486;2023-08-24T01:23:56;20.60;99.90
12841;DHT22;6487;48.626;12.486;2023-08-24T01:26:33;20.40;99.90
12841;DHT22;6487;48.626;12.486;2023-08-24T01:29:03;20.40;99.90
12841;DHT22;6487;48.626;12.486;2023-08-24T01:31:32;20.40;99.90
12841;DHT22;6487;48.626;12.486;2023-08-24T01:34:01;20.40;99.90
12841;DHT22;6487;48.626;12.486;2023-08-24T01:36:29;20.50;99.90
12841;DHT22;6487;48.626;12.486;2023-08-24T01:39:02;20.40;99.90
12841;DHT22;6487;48.626;12.486;2023-08-24T01:41:36;20.40;99.90
12841;DHT22;6487;48.626;12.486;2023-08-24T01:44:07;20.30;99.90
12841;DHT22;6487;48.626;12.486;2023-08-24T01:46:38;20.40;99.90
12841;DHT22;6487;48.626;12.486;2023-08-24T01:49:08;20.30;99.90
12841;DHT22;6487;48.626;12.486;2023-08-24T01:51:41;20.30;99.90
12841;DHT22;6487;48.626;12.486;2023-08-24T01:54:10;20.20;99.90
12841;DHT22;6487;48.626;12.486;2023-08-24T01:56:40;20.20;99.90
12841;DHT22;6487;48.626;12.486;2023-08-24T01:59:08;20.20;99.90
12841;DHT22;6487;48.626;12.486;2023-08-24T02:01:39;20.10;99.90
12841;DHT22;6487;48.626;12.486;2023-08-24T02:04:08;20.10;99.90
12841;DHT22;6487;48.626;12.486;2023-08-24T02:06:36;20.10;99.90
12841;DHT22;6487;48.626;12.486;2023-08-24T02:09:04;20.00;99.90
12841;DHT22;6487;48.626;12.486;2023-08-24T02:11:35;20.00;99.90
12841;DHT22;6487;48.626;12.486;2023-08-24T02:14:05;20.00;99.90
12841;DHT22;6487;48.626;12.486;2023-08-24T02:16:34;20.00;99.90
12841;DHT22;6487;48.626;12.486;2023-08-24T02:19:03;20.00;99.90
12841;DHT22;6487;48.626;12.486;2023-08-24T02:21:32;19.90;99.90
12841;DHT22;6487;48.626;12.486;2023-08-24T02:24:04;19.90;99.90
12841;DHT22;6487;48.626;12.486;2023-08-24T02:26:35;19.80;99.90
12841;DHT22;6487;48.626;12.486;2023-08-24T02:29:05;19.80;99.90
12841;DHT22;6487;48.626;12.486;2023-08-24T02:31:33;19.80;99.90
12841;DHT22;6487;48.626;12.486;2023-08-24T02:34:02;19.80;99.90
12841;DHT22;6487;48.626;12.486;2023-08-24T02:36:32;19.70;99.90
12841;DHT22;6487;48.626;12.486;2023-08-24T02:39:04;19.70;99.90
12841;DHT22;6487;48.626;12.486;2023-08-24T02:41:35;19.70;99.90
12841;DHT22;6487;48.626;12.486;2023-08-24T02:44:07;19.70;99.90
12841;DHT22;6487;48.626;12.486;2023-08-24T02:46:36;19.70;99.90
12841;DHT22;6487;48.626;12.486;2023-08-24T02:49:07;19.60;99.90
12841;DHT22;6487;48.626;12.486;2023-08-24T02:51:35;19.60;99.90
12841;DHT22;6487;48.626;12.486;2023-08-24T02:54:04;19.60;99.90
12841;DHT22;6487;48.626;12.486;2023-08-24T02:56:35;19.60;99.90
12841;DHT22;6487;48.626;12.486;2023-08-24T02:59:05;19.50;99.90
12841;DHT22;6487;48.626;12.486;2023-08-24T03:01:35;19.50;99.90
12841;DHT22;6487;48.626;12.486;2023-08-24T03:04:05;19.50;99.90
12841;DHT22;6487;48.626;12.486;2023-08-24T03:06:34;19.50;99.90
12841;DHT22;6487;48.626;12.486;2023-08-24T03:09:08;19.50;99.90
12841;DHT22;6487;48.626;12.486;2023-08-24T03:11:40;19.40;99.90
12841;DHT22;6487;48.626;12.486;2023-08-24T03:14:10;19.50;99.90
12841;DHT22;6487;48.626;12.486;2023-08-24T03:16:38;19.50;99.90
12841;DHT22;6487;48.626;12.486;2023-08-24T03:19:07;19.50;99.90
12841;DHT22;6487;48.626;12.486;2023-08-24T03:21:35;19.40;99.90
12841;DHT22;6487;48.626;12.486;2023-08-24T03:24:04;19.40;99.90
12841;DHT22;6487;48.626;12.486;2023-08-24T03:26:33;19.40;99.90
12841;DHT22;6487;48.626;12.486;2023-08-24T03:29:01;19.30;99.90
12841;DHT22;6487;48.626;12.486;2023-08-24T03:31:31;19.30;99.90
12841;DHT22;6487;48.626;12.486;2023-08-24T03:34:00;19.30;99.90
12841;DHT22;6487;48.626;12.486;2023-08-24T03:36:32;19.40;99.90
12841;DHT22;6487;48.626;12.486;2023-08-24T03:39:00;19.30;99.90
12841;DHT22;6487;48.626;12.486;2023-08-24T03:41:28;19.30;99.90
12841;DHT22;6487;48.626;12.486;2023-08-24T03:43:57;19.30;99.90
12841;DHT22;6487;48.626;12.486;2023-08-24T03:46:28;19.30;99.90
12841;DHT22;6487;48.626;12.486;2023-08-24T03:48:58;19.30;99.90
12841;DHT22;6487;48.626;12.486;2023-08-24T03:51:27;19.30;99.90
12841;DHT22;6487;48.626;12.486;2023-08-24T03:53:55;19.20;99.90
12841;DHT22;6487;48.626;12.486;2023-08-24T03:56:24;19.20;99.90
12841;DHT22;6487;48.626;12.486;2023-08-24T03:58:52;19.20;99.90
12841;DHT22;6487;48.626;12.486;2023-08-24T04:01:21;19.10;99.90
12841;DHT22;6487;48.626;12.486;2023-08-24T04:03:53;19.00;99.90
12841;DHT22;6487;48.626;12.486;2023-08-24T04:06:23;19.00;99.90
12841;DHT22;6487;48.626;12.486;2023-08-24T04:08:54;19.10;99.90
12841;DHT22;6487;48.626;12.486;2023-08-24T04:11:23;19.00;99.90
12841;DHT22;6487;48.626;12.486;2023-08-24T04:13:54;19.00;99.90
12841;DHT22;6487;48.626;12.486;2023-08-24T04:16:22;19.00;99.90
12841;DHT22;6487;48.626;12.486;2023-08-24T04:18:51;19.00;99.90
12841;DHT22;6487;48.626;12.486;2023-08-24T04:21:19;19.00;99.90
12841;DHT22;6487;48.626;12.486;2023-08-24T04:23:49;19.00;99.90
12841;DHT22;6487;48.626;12.486;2023-08-24T04:26:17;18.90;99.90
12841;DHT22;6487;48.626;12.486;2023-08-24T04:28:45;18.90;99.90
12841;DHT22;6487;48.626;12.486;2023-08-24T04:31:14;18.90;99.90
12841;DHT22;6487;48.626;12.486;2023-08-24T04:33:42;18.90;99.90
12841;DHT22;6487;48.626;12.486;2023-08-24T04:36:11;19.00;99.90
12841;DHT22;6487;48.626;12.486;2023-08-24T04:38:39;18.90;99.90
12841;DHT22;6487;48.626;12.486;2023-08-24T04:41:14;18.90;99.90
12841;DHT22;6487;48.626;12.486;2023-08-24T04:43:42;19.00;99.90
12841;DHT22;6487;48.626;12.486;2023-08-24T04:46:11;19.00;99.90
12841;DHT22;6487;48.626;12.486;2023-08-24T04:48:42;19.00;99.90
12841;DHT22;6487;48.626;12.486;2023-08-24T04:51:10;19.10;99.90
12841;DHT22;6487;48.626;12.486;2023-08-24T04:53:38;19.10;99.90
12841;DHT22;6487;48.626;12.486;2023-08-24T04:56:07;19.10;99.90
12841;DHT22;6487;48.626;12.486;2023-08-24T04:58:36;19.10;99.90
12841;DHT22;6487;48.626;12.486;2023-08-24T05:01:05;19.20;99.90
12841;DHT22;6487;48.626;12.486;2023-08-24T05:03:33;19.20;99.90
12841;DHT22;6487;48.626;12.486;2023-08-24T05:06:02;19.20;99.90
12841;DHT22;6487;48.626;12.486;2023-08-24T05:08:30;19.30;99.90
12841;DHT22;6487;48.626;12.486;2023-08-24T05:10:59;19.20;99.90
12841;DHT22;6487;48.626;12.486;2023-08-24T05:13:28;19.30;99.90
12841;DHT22;6487;48.626;12.486;2023-08-24T05:16:00;19.30;99.90
12841;DHT22;6487;48.626;12.486;2023-08-24T05:18:29;19.30;99.90
12841;DHT22;6487;48.626;12.486;2023-08-24T05:20:57;19.30;99.90
12841;DHT22;6487;48.626;12.486;2023-08-24T05:23:25;19.40;99.90
12841;DHT22;6487;48.626;12.486;2023-08-24T05:25:54;19.40;99.90
12841;DHT22;6487;48.626;12.486;2023-08-24T05:28:23;19.40;99.90
12841;DHT22;6487;48.626;12.486;2023-08-24T05:30:51;19.40;99.90
12841;DHT22;6487;48.626;12.486;2023-08-24T05:33:22;19.50;99.90
12841;DHT22;6487;48.626;12.486;2023-08-24T05:35:52;19.50;99.90
12841;DHT22;6487;48.626;12.486;2023-08-24T05:38:20;19.50;99.90
12841;DHT22;6487;48.626;12.486;2023-08-24T05:40:49;19.60;99.90
12841;DHT22;6487;48.626;12.486;2023-08-24T05:43:18;19.60;99.90
12841;DHT22;6487;48.626;12.486;2023-08-24T05:45:48;19.50;99.90
12841;DHT22;6487;48.626;12.486;2023-08-24T05:48:16;19.50;99.90
12841;DHT22;6487;48.626;12.486;2023-08-24T05:50:47;19.60;99.90
12841;DHT22;6487;48.626;12.486;2023-08-24T05:53:15;19.70;99.90
12841;DHT22;6487;48.626;12.486;2023-08-24T05:55:43;19.80;99.90
12841;DHT22;6487;48.626;12.486;2023-08-24T05:58:12;20.00;99.90
12841;DHT22;6487;48.626;12.486;2023-08-24T06:00:40;20.10;99.90
12841;DHT22;6487;48.626;12.486;2023-08-24T06:03:08;20.20;99.90
12841;DHT22;6487;48.626;12.486;2023-08-24T06:05:39;20.20;99.90
12841;DHT22;6487;48.626;12.486;2023-08-24T06:08:09;20.30;99.90
12841;DHT22;6487;48.626;12.486;2023-08-24T06:10:37;20.40;99.90
12841;DHT22;6487;48.626;12.486;2023-08-24T06:13:06;20.50;99.90
12841;DHT22;6487;48.626;12.486;2023-08-24T06:15:34;20.50;99.90
12841;DHT22;6487;48.626;12.486;2023-08-24T06:18:03;20.50;99.90
12841;DHT22;6487;48.626;12.486;2023-08-24T06:20:32;20.60;99.90
12841;DHT22;6487;48.626;12.486;2023-08-24T06:23:00;20.70;99.90
12841;DHT22;6487;48.626;12.486;2023-08-24T06:25:31;20.80;99.90
12841;DHT22;6487;48.626;12.486;2023-08-24T06:27:59;20.90;99.90
12841;DHT22;6487;48.626;12.486;2023-08-24T06:30:30;21.00;99.90
12841;DHT22;6487;48.626;12.486;2023-08-24T06:33:04;21.10;99.90
12841;DHT22;6487;48.626;12.486;2023-08-24T06:35:33;21.10;99.90
12841;DHT22;6487;48.626;12.486;2023-08-24T06:38:01;21.20;99.90
12841;DHT22;6487;48.626;12.486;2023-08-24T06:40:32;21.20;99.90
12841;DHT22;6487;48.626;12.486;2023-08-24T06:43:00;21.30;99.90
12841;DHT22;6487;48.626;12.486;2023-08-24T06:45:29;21.50;99.90
12841;DHT22;6487;48.626;12.486;2023-08-24T06:47:57;21.60;99.90
12841;DHT22;6487;48.626;12.486;2023-08-24T06:50:26;21.70;99.90
12841;DHT22;6487;48.626;12.486;2023-08-24T06:52:54;21.90;99.90
12841;DHT22;6487;48.626;12.486;2023-08-24T06:55:22;22.10;99.90
12841;DHT22;6487;48.626;12.486;2023-08-24T06:57:52;22.20;99.90
12841;DHT22;6487;48.626;12.486;2023-08-24T07:00:20;22.40;99.90
12841;DHT22;6487;48.626;12.486;2023-08-24T07:02:51;22.50;99.90
12841;DHT22;6487;48.626;12.486;2023-08-24T07:05:20;22.70;99.90
12841;DHT22;6487;48.626;12.486;2023-08-24T07:07:50;22.80;99.90
12841;DHT22;6487;48.626;12.486;2023-08-24T07:10:19;23.00;99.90
12841;DHT22;6487;48.626;12.486;2023-08-24T07:12:47;23.10;99.90
12841;DHT22;6487;48.626;12.486;2023-08-24T07:15:17;23.30;99.90
12841;DHT22;6487;48.626;12.486;2023-08-24T07:17:45;23.50;99.90
12841;DHT22;6487;48.626;12.486;2023-08-24T07:20:14;23.70;99.90
12841;DHT22;6487;48.626;12.486;2023-08-24T07:22:43;23.90;99.90
12841;DHT22;6487;48.626;12.486;2023-08-24T07:25:11;24.00;99.90
12841;DHT22;6487;48.626;12.486;2023-08-24T07:27:41;24.20;99.90
12841;DHT22;6487;48.626;12.486;2023-08-24T07:30:11;24.30;99.90
12841;DHT22;6487;48.626;12.486;2023-08-24T07:33:00;24.40;99.90
12841;DHT22;6487;48.626;12.486;2023-08-24T07:35:30;24.60;99.90
12841;DHT22;6487;48.626;12.486;2023-08-24T07:37:59;24.70;99.90
12841;DHT22;6487;48.626;12.486;2023-08-24T07:40:28;24.80;99.90
12841;DHT22;6487;48.626;12.486;2023-08-24T07:42:56;25.00;99.90
12841;DHT22;6487;48.626;12.486;2023-08-24T07:45:25;25.30;99.90
12841;DHT22;6487;48.626;12.486;2023-08-24T07:47:53;25.40;99.90
12841;DHT22;6487;48.626;12.486;2023-08-24T07:50:23;25.50;99.90
12841;DHT22;6487;48.626;12.486;2023-08-24T07:52:52;25.60;99.90
12841;DHT22;6487;48.626;12.486;2023-08-24T07:55:23;25.70;99.80
12841;DHT22;6487;48.626;12.486;2023-08-24T07:57:52;26.00;99.90
12841;DHT22;6487;48.626;12.486;2023-08-24T08:00:21;26.00;99.90
12841;DHT22;6487;48.626;12.486;2023-08-24T08:02:51;26.20;99.90
12841;DHT22;6487;48.626;12.486;2023-08-24T08:05:20;26.40;99.80
12841;DHT22;6487;48.626;12.486;2023-08-24T08:07:51;26.60;99.90
12841;DHT22;6487;48.626;12.486;2023-08-24T08:10:19;26.70;99.80
12841;DHT22;6487;48.626;12.486;2023-08-24T08:12:48;26.90;99.80
12841;DHT22;6487;48.626;12.486;2023-08-24T08:15:17;27.00;99.90
12841;DHT22;6487;48.626;12.486;2023-08-24T08:17:45;27.20;99.70
12841;DHT22;6487;48.626;12.486;2023-08-24T08:20:15;27.10;99.20
12841;DHT22;6487;48.626;12.486;2023-08-24T08:22:44;27.10;99.80
12841;DHT22;6487;48.626;12.486;2023-08-24T08:25:14;27.20;99.20
12841;DHT22;6487;48.626;12.486;2023-08-24T08:27:44;27.30;99.30
12841;DHT22;6487;48.626;12.486;2023-08-24T08:30:13;27.40;99.90
12841;DHT22;6487;48.626;12.486;2023-08-24T08:32:42;27.40;99.30
12841;DHT22;6487;48.626;12.486;2023-08-24T08:35:10;27.40;99.20
12841;DHT22;6487;48.626;12.486;2023-08-24T08:37:39;27.60;99.40
12841;DHT22;6487;48.626;12.486;2023-08-24T08:40:10;27.80;99.40
12841;DHT22;6487;48.626;12.486;2023-08-24T08:42:40;28.00;98.50
12841;DHT22;6487;48.626;12.486;2023-08-24T08:45:10;28.20;98.20
12841;DHT22;6487;48.626;12.486;2023-08-24T08:47:39;28.30;98.10
12841;DHT22;6487;48.626;12.486;2023-08-24T08:50:09;28.60;98.40
12841;DHT22;6487;48.626;12.486;2023-08-24T08:52:39;28.80;98.30
12841;DHT22;6487;48.626;12.486;2023-08-24T08:55:07;29.00;98.20
12841;DHT22;6487;48.626;12.486;2023-08-24T08:57:39;29.10;98.90
12841;DHT22;6487;48.626;12.486;2023-08-24T09:00:11;29.20;98.30
12841;DHT22;6487;48.626;12.486;2023-08-24T09:02:43;29.30;98.20
12841;DHT22;6487;48.626;12.486;2023-08-24T09:05:13;29.40;97.30
12841;DHT22;6487;48.626;12.486;2023-08-24T09:07:42;29.60;97.10
12841;DHT22;6487;48.626;12.486;2023-08-24T09:10:11;29.80;96.30
12841;DHT22;6487;48.626;12.486;2023-08-24T09:12:40;30.10;96.60
12841;DHT22;6487;48.626;12.486;2023-08-24T09:15:10;30.20;96.90
12841;DHT22;6487;48.626;12.486;2023-08-24T09:17:42;30.50;96.30
12841;DHT22;6487;48.626;12.486;2023-08-24T09:20:12;30.40;94.80
12841;DHT22;6487;48.626;12.486;2023-08-24T09:22:42;30.50;95.10
12841;DHT22;6487;48.626;12.486;2023-08-24T09:25:12;30.70;93.40
12841;DHT22;6487;48.626;12.486;2023-08-24T09:27:41;30.70;92.40
12841;DHT22;6487;48.626;12.486;2023-08-24T09:30:10;31.00;94.70
12841;DHT22;6487;48.626;12.486;2023-08-24T09:32:40;31.20;93.40
12841;DHT22;6487;48.626;12.486;2023-08-24T09:35:09;31.30;92.70
12841;DHT22;6487;48.626;12.486;2023-08-24T09:37:38;31.40;92.90
12841;DHT22;6487;48.626;12.486;2023-08-24T09:40:10;31.50;91.80
12841;DHT22;6487;48.626;12.486;2023-08-24T09:42:41;31.60;91.70
12841;DHT22;6487;48.626;12.486;2023-08-24T09:45:12;31.80;88.00
12841;DHT22;6487;48.626;12.486;2023-08-24T09:47:45;31.70;88.60
12841;DHT22;6487;48.626;12.486;2023-08-24T09:50:16;31.90;88.90
12841;DHT22;6487;48.626;12.486;2023-08-24T09:52:47;32.10;87.20
12841;DHT22;6487;48.626;12.486;2023-08-24T09:55:20;32.00;88.80
12841;DHT22;6487;48.626;12.486;2023-08-24T09:57:53;32.00;90.60
12841;DHT22;6487;48.626;12.486;2023-08-24T10:00:25;32.20;89.20
12841;DHT22;6487;48.626;12.486;2023-08-24T10:02:54;32.40;89.50
12841;DHT22;6487;48.626;12.486;2023-08-24T10:05:24;32.40;90.10
12841;DHT22;6487;48.626;12.486;2023-08-24T10:07:56;32.60;88.90
12841;DHT22;6487;48.626;12.486;2023-08-24T10:10:25;32.50;85.80
12841;DHT22;6487;48.626;12.486;2023-08-24T10:13:00;32.70;90.00
12841;DHT22;6487;48.626;12.486;2023-08-24T10:15:36;32.80;84.00
12841;DHT22;6487;48.626;12.486;2023-08-24T10:18:15;32.80;86.10
12841;DHT22;6487;48.626;12.486;2023-08-24T10:20:44;32.80;82.10
12841;DHT22;6487;48.626;12.486;2023-08-24T10:23:16;32.80;82.80
12841;DHT22;6487;48.626;12.486;2023-08-24T10:25:46;32.90;86.50
12841;DHT22;6487;48.626;12.486;2023-08-24T10:28:18;33.00;83.50
12841;DHT22;6487;48.626;12.486;2023-08-24T10:30:48;33.20;83.90
12841;DHT22;6487;48.626;12.486;2023-08-24T10:33:18;33.30;83.60
12841;DHT22;6487;48.626;12.486;2023-08-24T10:35:48;33.20;84.50
12841;DHT22;6487;48.626;12.486;2023-08-24T10:38:23;33.10;82.70
12841;DHT22;6487;48.626;12.486;2023-08-24T10:40:53;33.20;86.90
12841;DHT22;6487;48.626;12.486;2023-08-24T10:43:24;33.00;81.70
12841;DHT22;6487;48.626;12.486;2023-08-24T10:45:56;33.10;82.40
12841;DHT22;6487;48.626;12.486;2023-08-24T10:48:27;33.20;80.60
12841;DHT22;6487;48.626;12.486;2023-08-24T10:51:18;33.40;83.30
12841;DHT22;6487;48.626;12.486;2023-08-24T10:53:53;33.50;83.50
12841;DHT22;6487;48.626;12.486;2023-08-24T10:56:32;33.70;81.00
12841;DHT22;6487;48.626;12.486;2023-08-24T10:59:14;33.60;80.50
12841;DHT22;6487;48.626;12.486;2023-08-24T11:01:55;33.60;79.80
12841;DHT22;6487;48.626;12.486;2023-08-24T11:04:25;33.60;79.10
12841;DHT22;6487;48.626;12.486;2023-08-24T11:06:57;33.60;82.70
12841;DHT22;6487;48.626;12.486;2023-08-24T11:09:45;33.90;79.50
12841;DHT22;6487;48.626;12.486;2023-08-24T11:12:14;33.80;83.40
12841;DHT22;6487;48.626;12.486;2023-08-24T11:14:53;33.70;78.70
12841;DHT22;6487;48.626;12.486;2023-08-24T11:17:30;33.90;79.60
12841;DHT22;6487;48.626;12.486;2023-08-24T11:20:00;33.90;81.00
12841;DHT22;6487;48.626;12.486;2023-08-24T11:22:32;33.90;77.50
12841;DHT22;6487;48.626;12.486;2023-08-24T11:25:01;34.10;80.90
12841;DHT22;6487;48.626;12.486;2023-08-24T11:27:31;34.20;78.80
12841;DHT22;6487;48.626;12.486;2023-08-24T11:30:02;34.10;79.30
12841;DHT22;6487;48.626;12.486;2023-08-24T11:32:32;34.10;77.70
12841;DHT22;6487;48.626;12.486;2023-08-24T11:35:01;34.30;78.80
12841;DHT22;6487;48.626;12.486;2023-08-24T11:37:30;34.10;79.50
12841;DHT22;6487;48.626;12.486;2023-08-24T11:39:58;34.20;79.50
12841;DHT22;6487;48.626;12.486;2023-08-24T11:42:35;34.30;78.40
12841;DHT22;6487;48.626;12.486;2023-08-24T11:45:11;34.20;76.20
12841;DHT22;6487;48.626;12.486;2023-08-24T11:47:40;34.40;78.80
12841;DHT22;6487;48.626;12.486;2023-08-24T11:50:09;34.60;77.90
12841;DHT22;6487;48.626;12.486;2023-08-24T11:52:39;34.70;77.70
12841;DHT22;6487;48.626;12.486;2023-08-24T11:55:08;34.80;77.90
12841;DHT22;6487;48.626;12.486;2023-08-24T11:57:37;34.70;78.20
12841;DHT22;6487;48.626;12.486;2023-08-24T12:00:08;34.50;75.20
12841;DHT22;6487;48.626;12.486;2023-08-24T12:02:41;34.50;74.30
12841;DHT22;6487;48.626;12.486;2023-08-24T12:05:20;34.30;74.50
12841;DHT22;6487;48.626;12.486;2023-08-24T12:07:52;34.10;75.30
12841;DHT22;6487;48.626;12.486;2023-08-24T12:10:21;34.20;78.20
12841;DHT22;6487;48.626;12.486;2023-08-24T12:13:00;34.30;74.40
12841;DHT22;6487;48.626;12.486;2023-08-24T12:15:34;34.20;77.30
12841;DHT22;6487;48.626;12.486;2023-08-24T12:18:10;34.40;76.20
12841;DHT22;6487;48.626;12.486;2023-08-24T12:20:40;34.70;74.10
12841;DHT22;6487;48.626;12.486;2023-08-24T12:23:10;34.70;74.80
12841;DHT22;6487;48.626;12.486;2023-08-24T12:25:42;34.70;77.40
12841;DHT22;6487;48.626;12.486;2023-08-24T12:28:12;34.80;76.00
12841;DHT22;6487;48.626;12.486;2023-08-24T12:30:47;35.00;76.80
12841;DHT22;6487;48.626;12.486;2023-08-24T12:33:24;35.10;76.60
12841;DHT22;6487;48.626;12.486;2023-08-24T12:35:53;35.20;75.30
12841;DHT22;6487;48.626;12.486;2023-08-24T12:38:23;35.30;73.90
12841;DHT22;6487;48.626;12.486;2023-08-24T12:40:52;35.30;74.60
12841;DHT22;6487;48.626;12.486;2023-08-24T12:43:20;35.50;74.30
12841;DHT22;6487;48.626;12.486;2023-08-24T12:45:50;35.30;73.30
12841;DHT22;6487;48.626;12.486;2023-08-24T12:48:19;35.10;72.80
12841;DHT22;6487;48.626;12.486;2023-08-24T12:50:47;35.10;72.90
12841;DHT22;6487;48.626;12.486;2023-08-24T12:53:16;35.20;73.00
12841;DHT22;6487;48.626;12.486;2023-08-24T12:55:44;35.30;76.00
12841;DHT22;6487;48.626;12.486;2023-08-24T12:58:12;35.30;77.20
12841;DHT22;6487;48.626;12.486;2023-08-24T13:00:41;35.40;74.70
12841;DHT22;6487;48.626;12.486;2023-08-24T13:03:11;35.60;74.70
12841;DHT22;6487;48.626;12.486;2023-08-24T13:05:42;35.50;73.30
12841;DHT22;6487;48.626;12.486;2023-08-24T13:08:10;35.50;74.50
12841;DHT22;6487;48.626;12.486;2023-08-24T13:10:39;35.50;73.50
12841;DHT22;6487;48.626;12.486;2023-08-24T13:13:07;35.10;74.70
12841;DHT22;6487;48.626;12.486;2023-08-24T13:15:39;35.00;75.80
12841;DHT22;6487;48.626;12.486;2023-08-24T13:18:08;35.00;76.70
12841;DHT22;6487;48.626;12.486;2023-08-24T13:20:38;35.20;76.50
12841;DHT22;6487;48.626;12.486;2023-08-24T13:23:06;35.10;75.90
12841;DHT22;6487;48.626;12.486;2023-08-24T13:25:34;35.10;75.30
12841;DHT22;6487;48.626;12.486;2023-08-24T13:28:03;35.20;75.40
12841;DHT22;6487;48.626;12.486;2023-08-24T13:30:32;35.20;76.10
12841;DHT22;6487;48.626;12.486;2023-08-24T13:33:01;35.20;75.40
12841;DHT22;6487;48.626;12.486;2023-08-24T13:35:29;35.00;75.10
12841;DHT22;6487;48.626;12.486;2023-08-24T13:37:59;34.90;75.00
12841;DHT22;6487;48.626;12.486;2023-08-24T13:40:27;34.90;76.30
12841;DHT22;6487;48.626;12.486;2023-08-24T13:42:56;35.00;76.00
12841;DHT22;6487;48.626;12.486;2023-08-24T13:45:24;35.10;73.90
12841;DHT22;6487;48.626;12.486;2023-08-24T13:47:53;35.20;73.90
12841;DHT22;6487;48.626;12.486;2023-08-24T13:50:21;35.20;75.90
12841;DHT22;6487;48.626;12.486;2023-08-24T13:52:50;35.10;74.80
12841;DHT22;6487;48.626;12.486;2023-08-24T13:55:20;34.80;74.60
12841;DHT22;6487;48.626;12.486;2023-08-24T13:57:48;34.60;74.70
12841;DHT22;6487;48.626;12.486;2023-08-24T14:00:18;34.40;74.40
12841;DHT22;6487;48.626;12.486;2023-08-24T14:02:46;34.40;76.30
12841;DHT22;6487;48.626;12.486;2023-08-24T14:05:15;34.50;75.70
12841;DHT22;6487;48.626;12.486;2023-08-24T14:07:44;34.50;75.30
12841;DHT22;6487;48.626;12.486;2023-08-24T14:10:12;34.60;76.10
12841;DHT22;6487;48.626;12.486;2023-08-24T14:12:42;34.80;75.60
12841;DHT22;6487;48.626;12.486;2023-08-24T14:15:10;34.80;75.60
12841;DHT22;6487;48.626;12.486;2023-08-24T14:17:39;34.90;69.90
12841;DHT22;6487;48.626;12.486;2023-08-24T14:20:08;35.00;71.80
12841;DHT22;6487;48.626;12.486;2023-08-24T14:22:39;35.10;72.20
12841;DHT22;6487;48.626;12.486;2023-08-24T14:25:08;34.90;74.00
12841;DHT22;6487;48.626;12.486;2023-08-24T14:27:36;35.00;74.30
12841;DHT22;6487;48.626;12.486;2023-08-24T14:30:13;34.90;72.80
12841;DHT22;6487;48.626;12.486;2023-08-24T14:32:41;34.80;69.60
12841;DHT22;6487;48.626;12.486;2023-08-24T14:35:09;34.70;72.60
12841;DHT22;6487;48.626;12.486;2023-08-24T14:37:38;34.60;70.50
12841;DHT22;6487;48.626;12.486;2023-08-24T14:40:08;34.50;70.90
12841;DHT22;6487;48.626;12.486;2023-08-24T14:42:38;34.60;71.30
12841;DHT22;6487;48.626;12.486;2023-08-24T14:45:07;34.50;70.50
12841;DHT22;6487;48.626;12.486;2023-08-24T14:47:37;34.50;70.20
12841;DHT22;6487;48.626;12.486;2023-08-24T14:50:06;34.40;69.80
12841;DHT22;6487;48.626;12.486;2023-08-24T14:52:37;34.20;70.80
12841;DHT22;6487;48.626;12.486;2023-08-24T14:55:07;34.30;71.70
12841;DHT22;6487;48.626;12.486;2023-08-24T14:57:36;34.20;70.70
12841;DHT22;6487;48.626;12.486;2023-08-24T15:00:06;33.90;71.50
12841;DHT22;6487;48.626;12.486;2023-08-24T15:02:38;33.90;71.20
12841;DHT22;6487;48.626;12.486;2023-08-24T15:05:08;34.00;73.00
12841;DHT22;6487;48.626;12.486;2023-08-24T15:07:37;34.20;74.70
12841;DHT22;6487;48.626;12.486;2023-08-24T15:10:06;34.20;73.60
12841;DHT22;6487;48.626;12.486;2023-08-24T15:12:35;34.30;73.90
12841;DHT22;6487;48.626;12.486;2023-08-24T15:15:04;34.10;73.40
12841;DHT22;6487;48.626;12.486;2023-08-24T15:17:33;33.90;72.30
12841;DHT22;6487;48.626;12.486;2023-08-24T15:20:05;34.00;73.00
12841;DHT22;6487;48.626;12.486;2023-08-24T15:22:34;34.10;73.80
12841;DHT22;6487;48.626;12.486;2023-08-24T15:25:04;33.90;70.70
12841;DHT22;6487;48.626;12.486;2023-08-24T15:27:33;33.70;71.00
12841;DHT22;6487;48.626;12.486;2023-08-24T15:30:02;33.50;70.90
12841;DHT22;6487;48.626;12.486;2023-08-24T15:32:32;33.50;71.00
12841;DHT22;6487;48.626;12.486;2023-08-24T15:35:00;33.50;72.10
12841;DHT22;6487;48.626;12.486;2023-08-24T15:37:31;33.40;75.10
12841;DHT22;6487;48.626;12.486;2023-08-24T15:39:59;33.40;74.60
12841;DHT22;6487;48.626;12.486;2023-08-24T15:42:30;33.40;76.60
12841;DHT22;6487;48.626;12.486;2023-08-24T15:44:59;33.50;78.00
12841;DHT22;6487;48.626;12.486;2023-08-24T15:47:29;33.20;76.90